createdAt,value
2019-05-13T00:01:53.981Z,69.50
2019-05-13T00:04:24.219Z,71.20
2019-05-13T00:06:57.036Z,71.35
2019-05-13T00:09:24.837Z,70.45
2019-05-13T00:11:54.251Z,72.13
2019-05-13T00:14:23.997Z,71.49
2019-05-13T00:16:53.647Z,71.68
2019-05-13T00:22:00.412Z,74.32
2019-05-13T00:27:10.377Z,74.00
2019-05-13T00:29:39.761Z,74.36
2019-05-13T00:32:08.964Z,74.45
2019-05-13T00:34:37.914Z,74.84
2019-05-13T00:37:10.830Z,75.05
2019-05-13T00:39:37.793Z,74.93
2019-05-13T00:44:44.722Z,74.74
2019-05-13T00:47:13.830Z,76.27
2019-05-13T00:49:43.687Z,75.86
2019-05-13T00:52:14.255Z,74.48
2019-05-13T00:54:44.135Z,75.94
2019-05-13T00:57:13.393Z,75.04
2019-05-13T00:59:44.305Z,74.71
2019-05-13T01:04:53.536Z,76.24
2019-05-13T01:07:28.573Z,77.78
2019-05-13T01:09:53.865Z,78.00
2019-05-13T01:12:23.875Z,78.30
2019-05-13T01:17:34.016Z,76.78
2019-05-13T01:20:04.103Z,76.22
2019-05-13T01:25:14.625Z,77.20
2019-05-13T01:27:44.427Z,77.89
2019-05-13T01:30:13.840Z,78.48
2019-05-13T01:32:44.843Z,78.88
2019-05-13T01:35:14.953Z,79.80
2019-05-13T01:40:24.021Z,79.94
2019-05-13T01:45:30.501Z,80.94
2019-05-13T01:47:59.389Z,81.44
2019-05-13T01:50:28.399Z,81.20
2019-05-13T01:52:57.475Z,81.23
2019-05-13T01:55:26.498Z,81.21
2019-05-13T01:57:55.980Z,82.34
2019-05-13T02:03:05.328Z,82.90
2019-05-13T02:08:14.349Z,82.05
2019-05-13T02:13:34.320Z,84.25
2019-05-13T02:16:04.363Z,85.07
2019-05-13T02:18:34.133Z,83.79
2019-05-13T02:21:05.375Z,85.60
2019-05-13T02:26:14.291Z,84.84
2019-05-13T02:28:43.883Z,85.75
2019-05-13T02:31:18.879Z,85.35
2019-05-13T02:33:44.267Z,83.17
2019-05-13T02:38:53.161Z,84.55
2019-05-13T02:44:03.211Z,85.19
2019-05-13T02:46:33.733Z,85.98
2019-05-13T02:49:03.172Z,87.11
2019-05-13T02:51:32.942Z,86.70
2019-05-13T02:54:03.489Z,87.42
2019-05-13T02:56:33.266Z,87.53
2019-05-13T02:59:03.969Z,86.99
2019-05-13T03:01:34.143Z,87.30
2019-05-13T03:06:43.373Z,86.77
2019-05-13T03:11:48.905Z,87.67
2019-05-13T03:14:18.212Z,88.37
2019-05-13T03:16:53.302Z,88.80
2019-05-13T03:19:22.628Z,88.60
2019-05-13T03:21:53.506Z,89.01
2019-05-13T03:27:03.319Z,88.67
2019-05-13T03:29:33.085Z,90.06
2019-05-13T03:34:45.560Z,90.23
2019-05-13T03:37:15.459Z,90.19
2019-05-13T03:39:44.193Z,90.45
2019-05-13T03:42:13.651Z,89.46
2019-05-13T03:44:43.921Z,89.96
2019-05-13T03:47:13.244Z,89.83
2019-05-13T03:49:43.755Z,91.21
2019-05-13T03:54:58.079Z,92.77
2019-05-13T03:57:27.346Z,92.67
2019-05-13T03:59:56.496Z,93.55
2019-05-13T04:02:26.278Z,92.77
2019-05-13T04:04:58.962Z,94.08
2019-05-13T04:07:26.756Z,93.44
2019-05-13T04:09:55.966Z,94.68
2019-05-13T04:12:28.587Z,95.06
2019-05-13T04:17:42.524Z,96.09
2019-05-13T04:22:53.589Z,97.17
2019-05-13T04:28:09.378Z,99.99
2019-05-13T04:30:39.505Z,99.04
2019-05-13T04:33:12.954Z,100.00
2019-05-13T04:38:18.541Z,100.00
2019-05-13T04:43:25.310Z,95.82
2019-05-13T04:48:43.903Z,99.51
2019-05-13T04:51:13.583Z,100.00
2019-05-13T04:53:42.335Z,100.00
2019-05-13T04:56:13.670Z,100.00
2019-05-13T04:58:43.339Z,100.00
2019-05-13T05:02:14.407Z,99.80
2019-05-13T05:08:03.160Z,100.00
2019-05-13T05:11:38.499Z,100.00
2019-05-13T05:14:52.267Z,100.00
2019-05-13T05:18:02.583Z,100.00
2019-05-13T05:20:53.272Z,100.00
2019-05-13T05:24:22.626Z,100.00
2019-05-13T05:27:42.073Z,100.00
2019-05-13T05:30:52.797Z,99.49
2019-05-13T05:34:07.202Z,98.42
2019-05-13T05:37:31.436Z,96.83
2019-05-13T05:40:03.095Z,99.47
2019-05-13T05:42:34.743Z,97.18
2019-05-13T05:47:44.097Z,95.56
2019-05-13T05:50:13.018Z,94.26
2019-05-13T05:52:44.981Z,94.15
2019-05-13T05:55:14.134Z,93.89
2019-05-13T05:57:45.088Z,93.34
2019-05-13T06:00:14.337Z,92.73
2019-05-13T06:02:47.990Z,92.51
2019-05-13T06:05:16.975Z,91.86
2019-05-13T06:07:45.744Z,89.88
2019-05-13T06:10:14.737Z,89.76
2019-05-13T06:12:44.837Z,89.68
2019-05-13T06:15:13.971Z,85.40
2019-05-13T06:17:42.890Z,84.73
2019-05-13T06:20:13.446Z,83.62
2019-05-13T06:25:22.954Z,83.20
2019-05-13T06:27:51.207Z,80.98
2019-05-13T06:30:21.692Z,81.40
2019-05-13T06:32:52.473Z,80.89
2019-05-13T06:35:21.812Z,79.80
2019-05-13T06:40:31.883Z,79.56
2019-05-13T06:43:01.494Z,77.80
2019-05-13T06:45:31.705Z,77.37
2019-05-13T06:48:02.435Z,78.29
2019-05-13T06:50:32.309Z,76.90
2019-05-13T06:55:41.630Z,76.50
2019-05-13T06:58:11.393Z,75.73
2019-05-13T07:03:21.971Z,73.85
2019-05-13T07:05:52.602Z,74.04
2019-05-13T07:08:22.495Z,73.02
2019-05-13T07:10:51.607Z,73.16
2019-05-13T07:15:57.789Z,72.49
2019-05-13T07:18:26.414Z,71.59
2019-05-13T07:20:55.414Z,72.39
2019-05-13T07:23:24.582Z,71.16
2019-05-13T07:25:53.196Z,69.65
2019-05-13T07:31:02.330Z,70.44
2019-05-13T07:36:12.711Z,69.94
2019-05-13T07:38:42.527Z,69.10
2019-05-13T07:41:11.999Z,68.36
2019-05-13T07:46:18.816Z,67.65
2019-05-13T07:48:47.750Z,66.63
2019-05-13T07:53:54.236Z,64.76
2019-05-13T07:56:22.849Z,64.70
2019-05-13T07:58:52.404Z,64.74
2019-05-13T08:04:02.463Z,61.78
2019-05-13T08:06:32.517Z,61.44
2019-05-13T08:09:01.802Z,60.48
2019-05-13T08:11:36.885Z,59.88
2019-05-13T08:14:02.415Z,57.63
2019-05-13T08:16:32.361Z,56.93
2019-05-13T08:19:01.949Z,56.87
2019-05-13T08:24:08.781Z,53.95
2019-05-13T08:26:43.153Z,52.88
2019-05-13T08:29:08.381Z,52.17
2019-05-13T08:34:16.159Z,50.15
2019-05-13T08:36:45.248Z,47.98
2019-05-13T08:39:14.330Z,47.48
2019-05-13T08:41:43.199Z,46.01
2019-05-13T08:44:12.539Z,45.11
2019-05-13T08:46:41.643Z,44.42
2019-05-13T08:51:47.966Z,43.22
2019-05-13T08:56:55.416Z,43.52
2019-05-13T08:59:24.086Z,42.40
2019-05-13T09:01:53.063Z,40.53
2019-05-13T09:04:22.325Z,40.53
2019-05-13T09:06:52.398Z,39.15
2019-05-13T09:09:22.035Z,40.44
2019-05-13T09:11:51.642Z,38.69
2019-05-13T09:14:21.924Z,39.21
2019-05-13T09:16:52.564Z,38.26
2019-05-13T09:22:02.689Z,37.03
2019-05-13T09:24:36.658Z,36.20
2019-05-13T09:27:01.937Z,35.48
2019-05-13T09:29:32.124Z,34.27
2019-05-13T09:32:03.955Z,33.53
2019-05-13T09:34:32.979Z,32.47
2019-05-13T09:37:02.746Z,33.06
2019-05-13T09:39:32.382Z,33.42
2019-05-13T09:42:02.759Z,32.66
2019-05-13T09:44:32.953Z,32.41
2019-05-13T09:49:42.160Z,30.52
2019-05-13T09:52:11.999Z,31.43
2019-05-13T09:54:42.481Z,30.91
2019-05-13T09:57:12.346Z,30.55
2019-05-13T09:59:42.398Z,31.63
2019-05-13T10:02:12.487Z,28.79
2019-05-13T10:04:43.683Z,29.28
2019-05-13T10:07:12.588Z,27.09
2019-05-13T10:09:43.013Z,27.83
2019-05-13T10:12:12.444Z,26.53
2019-05-13T10:14:42.449Z,27.42
2019-05-13T10:17:13.126Z,25.96
2019-05-13T10:19:42.171Z,27.30
2019-05-13T10:22:12.011Z,26.57
2019-05-13T10:24:42.240Z,25.44
2019-05-13T10:27:12.360Z,25.05
2019-05-13T10:29:42.921Z,24.05
2019-05-13T10:32:12.098Z,23.96
2019-05-13T10:34:42.920Z,24.34
2019-05-13T10:37:12.520Z,24.96
2019-05-13T10:39:41.611Z,22.88
2019-05-13T10:42:12.025Z,24.63
2019-05-13T10:44:42.266Z,23.40
2019-05-13T10:47:12.030Z,24.79
2019-05-13T10:52:22.989Z,24.04
2019-05-13T10:57:31.843Z,23.22
2019-05-13T11:00:03.434Z,23.08
2019-05-13T11:05:14.192Z,24.12
2019-05-13T11:07:42.931Z,24.26
2019-05-13T11:10:14.384Z,25.14
2019-05-13T11:12:43.490Z,23.80
2019-05-13T11:15:13.571Z,24.54
2019-05-13T11:17:42.837Z,23.79
2019-05-13T11:20:12.446Z,24.06
2019-05-13T11:25:21.836Z,23.94
2019-05-13T11:27:52.457Z,24.19
2019-05-13T11:30:27.777Z,22.57
2019-05-13T11:35:34.130Z,24.07
2019-05-13T11:38:03.454Z,25.19
2019-05-13T11:40:32.190Z,25.58
2019-05-13T11:43:01.844Z,24.86
2019-05-13T11:45:31.564Z,23.92
2019-05-13T11:48:02.237Z,22.44
2019-05-13T11:50:31.363Z,22.22
2019-05-13T11:55:42.283Z,22.99
2019-05-13T11:58:13.922Z,23.30
2019-05-13T12:04:10.189Z,23.86
2019-05-13T12:06:45.918Z,23.37
2019-05-13T12:09:12.666Z,24.05
2019-05-13T12:11:40.282Z,24.44
2019-05-13T12:14:34.749Z,23.72
2019-05-13T12:19:18.556Z,22.31
2019-05-13T12:21:54.177Z,22.75
2019-05-13T12:24:22.765Z,24.01
2019-05-13T12:26:53.127Z,23.06
2019-05-13T12:29:22.090Z,23.22
2019-05-13T12:31:52.726Z,22.99
2019-05-13T12:34:23.010Z,23.96
2019-05-13T12:36:52.215Z,22.16
2019-05-13T12:39:23.906Z,21.94
2019-05-13T12:41:53.765Z,21.17
2019-05-13T12:44:23.137Z,21.34
2019-05-13T12:46:54.263Z,22.75
2019-05-13T12:49:31.465Z,22.48
2019-05-13T12:52:00.589Z,21.68
2019-05-13T12:54:26.190Z,21.43
2019-05-13T12:56:55.211Z,22.18
2019-05-13T12:59:23.942Z,21.66
2019-05-13T13:04:37.473Z,21.61
2019-05-13T13:07:06.401Z,21.06
2019-05-13T13:12:14.129Z,21.55
2019-05-13T13:14:44.286Z,21.74
2019-05-13T13:19:54.764Z,21.98
2019-05-13T13:22:25.382Z,21.45
2019-05-13T13:27:59.806Z,20.33
2019-05-13T13:32:46.421Z,20.94
2019-05-13T13:35:15.348Z,21.25
2019-05-13T13:37:45.940Z,21.50
2019-05-13T13:40:20.266Z,22.02
2019-05-13T13:42:46.194Z,21.95
2019-05-13T13:45:15.079Z,22.07
2019-05-13T13:47:45.685Z,20.12
2019-05-13T13:50:14.788Z,20.18
2019-05-13T13:55:25.772Z,20.55
2019-05-13T13:57:56.696Z,20.90
2019-05-13T14:00:38.182Z,20.44
2019-05-13T14:05:36.347Z,19.44
2019-05-13T14:08:05.684Z,19.90
2019-05-13T14:10:34.356Z,19.71
2019-05-13T14:13:04.864Z,20.08
2019-05-13T14:15:34.468Z,18.81
2019-05-13T14:18:03.550Z,19.42
2019-05-13T14:20:32.752Z,19.80
2019-05-13T14:23:02.737Z,19.29
2019-05-13T14:28:18.268Z,18.47
2019-05-13T14:30:47.010Z,17.67
2019-05-13T14:35:55.005Z,17.21
2019-05-13T14:38:24.820Z,16.84
2019-05-13T14:40:54.201Z,17.52
2019-05-13T14:43:23.541Z,17.86
2019-05-13T14:45:52.332Z,17.82
2019-05-13T14:48:22.324Z,17.52
2019-05-13T14:50:52.309Z,17.19
2019-05-13T14:53:21.479Z,17.27
2019-05-13T14:55:51.770Z,17.49
2019-05-13T15:01:11.203Z,17.64
2019-05-13T15:03:28.496Z,17.46
2019-05-13T15:05:57.671Z,17.91
2019-05-13T15:08:26.722Z,18.33
2019-05-13T15:13:36.378Z,17.72
2019-05-13T15:16:05.415Z,17.55
2019-05-13T15:18:34.334Z,17.77
2019-05-13T15:21:03.405Z,18.38
2019-05-13T15:23:32.199Z,19.02
2019-05-13T15:26:02.210Z,18.97
2019-05-13T15:31:16.706Z,19.72
2019-05-13T15:36:26.069Z,20.09
2019-05-13T15:38:54.719Z,19.71
2019-05-13T15:41:24.184Z,20.54
2019-05-13T15:43:53.105Z,20.39
2019-05-13T15:46:22.072Z,21.06
2019-05-13T15:48:51.502Z,21.69
2019-05-13T15:54:01.396Z,21.48
2019-05-13T15:56:31.262Z,21.94
2019-05-13T15:59:01.922Z,21.87
2019-05-13T16:01:30.215Z,21.89
2019-05-13T16:03:58.848Z,21.89
2019-05-13T16:06:28.184Z,22.68
2019-05-13T16:11:34.666Z,22.67
2019-05-13T16:14:03.427Z,22.87
2019-05-13T16:16:32.567Z,23.08
2019-05-13T16:19:01.329Z,23.53
2019-05-13T16:21:31.936Z,23.98
2019-05-13T16:24:02.552Z,24.32
2019-05-13T16:26:31.998Z,24.88
2019-05-13T16:31:43.262Z,24.10
2019-05-13T16:34:13.572Z,24.18
2019-05-13T16:36:43.281Z,24.69
2019-05-13T16:39:12.533Z,25.07
2019-05-13T16:44:22.425Z,25.03
2019-05-13T16:46:51.574Z,25.19
2019-05-13T16:51:58.157Z,24.90
2019-05-13T16:54:26.875Z,25.95
2019-05-13T16:56:55.642Z,25.95
2019-05-13T17:02:01.945Z,25.93
2019-05-13T17:04:32.144Z,26.19
2019-05-13T17:07:01.626Z,26.36
2019-05-13T17:09:32.301Z,26.37
2019-05-13T17:12:01.613Z,26.61
2019-05-13T17:17:07.832Z,26.38
2019-05-13T17:19:37.288Z,26.97
2019-05-13T17:24:45.731Z,26.98
2019-05-13T17:27:14.426Z,27.06
2019-05-13T17:29:43.244Z,26.26
2019-05-13T17:32:11.942Z,26.21
2019-05-13T17:34:43.584Z,25.82
2019-05-13T17:37:11.728Z,26.34
2019-05-13T17:39:41.523Z,26.69
2019-05-13T17:42:12.264Z,27.30
2019-05-13T17:44:45.884Z,27.49
2019-05-13T17:49:51.987Z,27.52
2019-05-13T17:52:22.119Z,27.01
2019-05-13T17:54:51.815Z,27.97
2019-05-13T17:57:21.590Z,28.23
2019-05-13T17:59:52.127Z,28.70
2019-05-13T18:02:20.901Z,29.02
2019-05-13T18:04:51.954Z,29.08
2019-05-13T18:07:21.482Z,29.30
2019-05-13T18:09:51.990Z,29.51
2019-05-13T18:12:22.329Z,29.62
2019-05-13T18:14:51.738Z,29.82
2019-05-13T18:17:21.536Z,30.09
2019-05-13T18:19:51.517Z,30.22
2019-05-13T18:25:02.612Z,30.39
2019-05-13T18:27:32.317Z,30.45
2019-05-13T18:30:02.135Z,30.67
2019-05-13T18:35:08.829Z,31.74
2019-05-13T18:37:37.909Z,32.09
2019-05-13T18:40:07.342Z,31.75
2019-05-13T18:45:13.650Z,32.44
2019-05-13T18:47:42.270Z,32.97
2019-05-13T18:50:11.628Z,32.33
2019-05-13T18:52:41.981Z,32.91
2019-05-13T18:55:12.411Z,32.93
2019-05-13T18:57:41.412Z,33.33
2019-05-13T19:00:11.725Z,33.60
2019-05-13T19:02:41.508Z,33.85
2019-05-13T19:05:11.981Z,33.90
2019-05-13T19:10:22.011Z,34.54
2019-05-13T19:15:31.757Z,35.30
2019-05-13T19:18:00.571Z,35.21
2019-05-13T19:20:31.217Z,35.97
2019-05-13T19:23:01.174Z,36.05
2019-05-13T19:25:31.399Z,36.58
2019-05-13T19:28:02.308Z,36.76
2019-05-13T19:33:17.403Z,37.39
2019-05-13T19:35:46.923Z,37.79
2019-05-13T19:38:16.410Z,37.75
2019-05-13T19:43:23.432Z,38.59
2019-05-13T19:45:52.142Z,38.68
2019-05-13T19:48:21.775Z,39.08
2019-05-13T19:50:52.144Z,39.64
2019-05-13T19:53:21.482Z,40.01
2019-05-13T19:55:52.004Z,39.97
2019-05-13T19:58:21.607Z,40.53
2019-05-13T20:03:33.226Z,41.54
2019-05-13T20:06:02.442Z,42.12
2019-05-13T20:08:32.087Z,42.88
2019-05-13T20:11:02.138Z,43.57
2019-05-13T20:13:31.419Z,44.32
2019-05-13T20:16:01.784Z,44.64
2019-05-13T20:18:32.010Z,45.09
2019-05-13T20:23:41.397Z,45.76
2019-05-13T20:26:10.670Z,45.85
2019-05-13T20:31:21.530Z,46.16
2019-05-13T20:33:51.580Z,47.35
2019-05-13T20:36:22.183Z,46.77
2019-05-13T20:38:51.623Z,47.39
2019-05-13T20:41:22.419Z,47.65
2019-05-13T20:43:52.105Z,48.40
2019-05-13T20:46:23.221Z,49.00
2019-05-13T20:48:52.127Z,49.54
2019-05-13T20:51:21.990Z,50.44
2019-05-13T20:53:51.801Z,50.90
2019-05-13T20:56:21.398Z,50.86
2019-05-13T20:58:51.597Z,50.93
2019-05-13T21:04:01.660Z,52.46
2019-05-13T21:06:31.573Z,52.04
2019-05-13T21:11:41.626Z,52.12
2019-05-13T21:14:10.029Z,53.74
2019-05-13T21:16:38.813Z,53.22
2019-05-13T21:19:07.573Z,52.75
2019-05-13T21:21:36.245Z,53.27
2019-05-13T21:26:45.956Z,53.76
2019-05-13T21:31:54.391Z,54.82
2019-05-13T21:34:23.714Z,54.55
2019-05-13T21:36:52.717Z,55.38
2019-05-13T21:39:23.487Z,57.01
2019-05-13T21:44:29.745Z,55.21
2019-05-13T21:46:59.386Z,56.89
2019-05-13T21:49:28.795Z,56.40
2019-05-13T21:51:57.886Z,57.38
2019-05-13T21:57:05.599Z,57.58
2019-05-13T21:59:34.297Z,57.20
2019-05-13T22:04:45.381Z,58.95
2019-05-13T22:07:14.144Z,59.90
2019-05-13T22:09:43.670Z,60.10
2019-05-13T22:12:13.394Z,59.05
2019-05-13T22:14:42.236Z,59.51
2019-05-13T22:17:12.278Z,61.06
2019-05-13T22:19:41.944Z,60.97
2019-05-13T22:22:11.624Z,61.37
2019-05-13T22:27:21.853Z,62.35
2019-05-13T22:32:35.645Z,62.62
2019-05-13T22:35:04.904Z,62.70
2019-05-13T22:37:33.572Z,62.39
2019-05-13T22:42:43.545Z,63.89
2019-05-13T22:45:12.522Z,63.37
2019-05-13T22:47:41.888Z,64.19
2019-05-13T22:50:12.198Z,64.87
2019-05-13T22:52:42.018Z,64.15
2019-05-13T22:55:11.470Z,65.46
2019-05-13T22:57:41.910Z,64.17
2019-05-13T23:02:57.137Z,64.68
2019-05-13T23:08:04.438Z,63.86
2019-05-13T23:13:10.695Z,64.92
2019-05-13T23:15:39.357Z,65.43
2019-05-13T23:18:08.537Z,65.59
2019-05-13T23:20:37.702Z,66.23
2019-05-13T23:23:07.208Z,67.01
2019-05-13T23:28:14.864Z,66.27
2019-05-13T23:33:24.725Z,67.95
2019-05-13T23:35:53.421Z,68.32
2019-05-13T23:41:06.878Z,68.08
2019-05-13T23:43:35.481Z,68.19
2019-05-13T23:46:04.335Z,68.55
2019-05-13T23:48:33.140Z,69.02
2019-05-13T23:51:01.813Z,70.07
2019-05-13T23:56:08.010Z,70.26
2019-05-13T23:58:37.042Z,69.37
